sensor_id;sensor_type;location;lat;lon;timestamp;P1;durP1;ratioP1;P2;durP2;ratioP2
970;SDS011;28939;45.540;-122.632;2022-07-23T00:01:29;1.50;;;1.40;;
970;SDS011;28939;45.540;-122.632;2022-07-23T00:04:00;1.47;;;1.37;;
970;SDS011;28939;45.540;-122.632;2022-07-23T00:06:31;1.07;;;0.80;;
970;SDS011;28939;45.540;-122.632;2022-07-23T00:09:02;0.87;;;0.87;;
970;SDS011;28939;45.540;-122.632;2022-07-23T00:11:34;0.83;;;0.83;;
970;SDS011;28939;45.540;-122.632;2022-07-23T00:14:05;0.60;;;0.60;;
970;SDS011;28939;45.540;-122.632;2022-07-23T00:16:36;0.70;;;0.60;;
970;SDS011;28939;45.540;-122.632;2022-07-23T00:19:07;0.80;;;0.80;;
970;SDS011;28939;45.540;-122.632;2022-07-23T00:21:37;0.80;;;0.57;;
970;SDS011;28939;45.540;-122.632;2022-07-23T00:24:08;0.70;;;0.70;;
970;SDS011;28939;45.540;-122.632;2022-07-23T00:26:41;1.00;;;0.50;;
970;SDS011;28939;45.540;-122.632;2022-07-23T00:29:11;0.80;;;0.80;;
970;SDS011;28939;45.540;-122.632;2022-07-23T00:31:42;0.60;;;0.60;;
970;SDS011;28939;45.540;-122.632;2022-07-23T00:34:16;1.23;;;1.13;;
970;SDS011;28939;45.540;-122.632;2022-07-23T00:36:47;0.53;;;0.53;;
970;SDS011;28939;45.540;-122.632;2022-07-23T00:39:18;0.70;;;0.70;;
970;SDS011;28939;45.540;-122.632;2022-07-23T00:41:51;0.60;;;0.60;;
970;SDS011;28939;45.540;-122.632;2022-07-23T00:44:23;0.70;;;0.70;;
970;SDS011;28939;45.540;-122.632;2022-07-23T00:46:55;0.70;;;0.70;;
970;SDS011;28939;45.540;-122.632;2022-07-23T00:49:27;0.90;;;0.90;;
970;SDS011;28939;45.540;-122.632;2022-07-23T00:52:01;1.10;;;1.00;;
970;SDS011;28939;45.540;-122.632;2022-07-23T00:54:33;1.40;;;1.00;;
970;SDS011;28939;45.540;-122.632;2022-07-23T00:57:06;0.90;;;0.90;;
970;SDS011;28939;45.540;-122.632;2022-07-23T00:59:38;1.33;;;1.23;;
970;SDS011;28939;45.540;-122.632;2022-07-23T01:02:09;1.23;;;1.17;;
970;SDS011;28939;45.540;-122.632;2022-07-23T01:04:40;2.27;;;1.30;;
970;SDS011;28939;45.540;-122.632;2022-07-23T01:07:10;1.90;;;1.80;;
970;SDS011;28939;45.540;-122.632;2022-07-23T01:09:41;1.80;;;1.70;;
970;SDS011;28939;45.540;-122.632;2022-07-23T01:12:14;1.73;;;1.40;;
970;SDS011;28939;45.540;-122.632;2022-07-23T01:14:45;1.23;;;1.13;;
970;SDS011;28939;45.540;-122.632;2022-07-23T01:17:22;1.07;;;0.97;;
970;SDS011;28939;45.540;-122.632;2022-07-23T01:19:53;0.80;;;0.80;;
970;SDS011;28939;45.540;-122.632;2022-07-23T01:22:28;0.93;;;0.93;;
970;SDS011;28939;45.540;-122.632;2022-07-23T01:25:00;1.37;;;1.27;;
970;SDS011;28939;45.540;-122.632;2022-07-23T01:27:31;1.10;;;0.80;;
970;SDS011;28939;45.540;-122.632;2022-07-23T01:30:02;1.10;;;1.10;;
970;SDS011;28939;45.540;-122.632;2022-07-23T01:32:33;1.17;;;1.10;;
970;SDS011;28939;45.540;-122.632;2022-07-23T01:35:04;1.00;;;1.00;;
970;SDS011;28939;45.540;-122.632;2022-07-23T01:37:39;1.43;;;1.33;;
970;SDS011;28939;45.540;-122.632;2022-07-23T01:40:10;1.13;;;1.03;;
970;SDS011;28939;45.540;-122.632;2022-07-23T01:42:41;1.10;;;1.10;;
970;SDS011;28939;45.540;-122.632;2022-07-23T01:45:12;1.00;;;1.00;;
970;SDS011;28939;45.540;-122.632;2022-07-23T01:47:42;1.23;;;1.13;;
970;SDS011;28939;45.540;-122.632;2022-07-23T01:50:14;1.40;;;1.30;;
970;SDS011;28939;45.540;-122.632;2022-07-23T01:52:47;1.40;;;1.13;;
970;SDS011;28939;45.540;-122.632;2022-07-23T01:55:17;1.90;;;1.23;;
970;SDS011;28939;45.540;-122.632;2022-07-23T01:57:48;1.30;;;1.20;;
970;SDS011;28939;45.540;-122.632;2022-07-23T02:00:19;1.40;;;1.30;;
970;SDS011;28939;45.540;-122.632;2022-07-23T02:02:50;1.17;;;1.07;;
970;SDS011;28939;45.540;-122.632;2022-07-23T02:05:20;1.37;;;1.27;;
970;SDS011;28939;45.540;-122.632;2022-07-23T02:07:53;1.50;;;1.40;;
970;SDS011;28939;45.540;-122.632;2022-07-23T02:10:24;1.20;;;1.20;;
970;SDS011;28939;45.540;-122.632;2022-07-23T02:12:55;0.90;;;0.90;;
970;SDS011;28939;45.540;-122.632;2022-07-23T02:15:26;1.07;;;1.07;;
970;SDS011;28939;45.540;-122.632;2022-07-23T02:17:57;1.00;;;1.00;;
970;SDS011;28939;45.540;-122.632;2022-07-23T02:20:28;1.50;;;1.30;;
970;SDS011;28939;45.540;-122.632;2022-07-23T02:23:00;1.83;;;1.73;;
970;SDS011;28939;45.540;-122.632;2022-07-23T02:25:31;0.87;;;0.87;;
970;SDS011;28939;45.540;-122.632;2022-07-23T02:28:02;1.00;;;1.00;;
970;SDS011;28939;45.540;-122.632;2022-07-23T02:30:33;1.40;;;1.30;;
970;SDS011;28939;45.540;-122.632;2022-07-23T02:33:05;1.10;;;1.10;;
970;SDS011;28939;45.540;-122.632;2022-07-23T02:35:36;1.50;;;1.40;;
970;SDS011;28939;45.540;-122.632;2022-07-23T02:38:08;1.07;;;1.00;;
970;SDS011;28939;45.540;-122.632;2022-07-23T02:40:39;1.43;;;1.33;;
970;SDS011;28939;45.540;-122.632;2022-07-23T02:43:10;1.07;;;1.00;;
970;SDS011;28939;45.540;-122.632;2022-07-23T02:45:41;1.53;;;1.43;;
970;SDS011;28939;45.540;-122.632;2022-07-23T02:48:11;1.47;;;1.30;;
970;SDS011;28939;45.540;-122.632;2022-07-23T02:50:42;1.57;;;1.47;;
970;SDS011;28939;45.540;-122.632;2022-07-23T02:53:15;1.40;;;1.30;;
970;SDS011;28939;45.540;-122.632;2022-07-23T02:55:45;1.57;;;1.47;;
970;SDS011;28939;45.540;-122.632;2022-07-23T02:58:16;1.30;;;1.20;;
970;SDS011;28939;45.540;-122.632;2022-07-23T03:00:47;1.33;;;1.13;;
970;SDS011;28939;45.540;-122.632;2022-07-23T03:03:18;1.20;;;1.10;;
970;SDS011;28939;45.540;-122.632;2022-07-23T03:05:55;1.60;;;1.50;;
970;SDS011;28939;45.540;-122.632;2022-07-23T03:08:27;1.20;;;1.10;;
970;SDS011;28939;45.540;-122.632;2022-07-23T03:10:58;1.80;;;1.70;;
970;SDS011;28939;45.540;-122.632;2022-07-23T03:13:29;1.37;;;1.27;;
970;SDS011;28939;45.540;-122.632;2022-07-23T03:16:01;1.20;;;1.10;;
970;SDS011;28939;45.540;-122.632;2022-07-23T03:18:33;1.40;;;1.30;;
970;SDS011;28939;45.540;-122.632;2022-07-23T03:21:07;1.53;;;1.43;;
970;SDS011;28939;45.540;-122.632;2022-07-23T03:23:39;1.50;;;1.40;;
970;SDS011;28939;45.540;-122.632;2022-07-23T03:26:10;1.50;;;1.40;;
970;SDS011;28939;45.540;-122.632;2022-07-23T03:28:41;1.20;;;1.10;;
970;SDS011;28939;45.540;-122.632;2022-07-23T03:31:12;1.93;;;1.80;;
970;SDS011;28939;45.540;-122.632;2022-07-23T03:33:42;1.77;;;1.67;;
970;SDS011;28939;45.540;-122.632;2022-07-23T03:36:13;2.23;;;1.80;;
970;SDS011;28939;45.540;-122.632;2022-07-23T03:38:48;1.83;;;1.33;;
970;SDS011;28939;45.540;-122.632;2022-07-23T03:41:20;1.80;;;1.70;;
970;SDS011;28939;45.540;-122.632;2022-07-23T03:43:50;2.57;;;2.37;;
970;SDS011;28939;45.540;-122.632;2022-07-23T03:46:21;1.80;;;1.70;;
970;SDS011;28939;45.540;-122.632;2022-07-23T03:48:52;1.50;;;1.40;;
970;SDS011;28939;45.540;-122.632;2022-07-23T03:51:25;1.53;;;1.43;;
970;SDS011;28939;45.540;-122.632;2022-07-23T03:53:57;1.40;;;1.30;;
970;SDS011;28939;45.540;-122.632;2022-07-23T03:56:28;1.80;;;1.60;;
970;SDS011;28939;45.540;-122.632;2022-07-23T03:58:59;1.70;;;1.43;;
970;SDS011;28939;45.540;-122.632;2022-07-23T04:01:31;1.40;;;1.30;;
970;SDS011;28939;45.540;-122.632;2022-07-23T04:04:02;1.57;;;1.47;;
970;SDS011;28939;45.540;-122.632;2022-07-23T04:06:32;1.73;;;1.30;;
970;SDS011;28939;45.540;-122.632;2022-07-23T04:09:05;3.73;;;1.60;;
970;SDS011;28939;45.540;-122.632;2022-07-23T04:11:37;4.33;;;3.20;;
970;SDS011;28939;45.540;-122.632;2022-07-23T04:14:08;3.20;;;2.90;;
970;SDS011;28939;45.540;-122.632;2022-07-23T04:16:39;1.40;;;1.30;;
970;SDS011;28939;45.540;-122.632;2022-07-23T04:19:09;1.83;;;1.70;;
970;SDS011;28939;45.540;-122.632;2022-07-23T04:21:40;2.53;;;2.33;;
970;SDS011;28939;45.540;-122.632;2022-07-23T04:24:12;1.50;;;1.40;;
970;SDS011;28939;45.540;-122.632;2022-07-23T04:26:43;1.70;;;1.60;;
970;SDS011;28939;45.540;-122.632;2022-07-23T04:29:14;1.93;;;1.50;;
970;SDS011;28939;45.540;-122.632;2022-07-23T04:31:45;1.80;;;1.50;;
970;SDS011;28939;45.540;-122.632;2022-07-23T04:34:16;2.47;;;2.27;;
970;SDS011;28939;45.540;-122.632;2022-07-23T04:36:46;2.17;;;2.07;;
970;SDS011;28939;45.540;-122.632;2022-07-23T04:39:19;2.70;;;2.33;;
970;SDS011;28939;45.540;-122.632;2022-07-23T04:41:50;2.53;;;2.30;;
970;SDS011;28939;45.540;-122.632;2022-07-23T04:44:20;1.23;;;1.13;;
970;SDS011;28939;45.540;-122.632;2022-07-23T04:46:51;1.43;;;1.30;;
970;SDS011;28939;45.540;-122.632;2022-07-23T04:49:23;1.30;;;1.20;;
970;SDS011;28939;45.540;-122.632;2022-07-23T04:51:54;1.80;;;1.70;;
970;SDS011;28939;45.540;-122.632;2022-07-23T04:54:27;1.30;;;1.10;;
970;SDS011;28939;45.540;-122.632;2022-07-23T04:56:57;1.47;;;1.37;;
970;SDS011;28939;45.540;-122.632;2022-07-23T04:59:28;1.40;;;1.30;;
970;SDS011;28939;45.540;-122.632;2022-07-23T05:01:59;1.40;;;1.30;;
970;SDS011;28939;45.540;-122.632;2022-07-23T05:04:30;1.57;;;1.47;;
970;SDS011;28939;45.540;-122.632;2022-07-23T05:07:01;1.60;;;1.50;;
970;SDS011;28939;45.540;-122.632;2022-07-23T05:09:35;1.40;;;1.30;;
970;SDS011;28939;45.540;-122.632;2022-07-23T05:12:06;1.50;;;1.40;;
970;SDS011;28939;45.540;-122.632;2022-07-23T05:14:37;1.70;;;1.60;;
970;SDS011;28939;45.540;-122.632;2022-07-23T05:17:08;1.20;;;1.10;;
970;SDS011;28939;45.540;-122.632;2022-07-23T05:19:38;1.57;;;1.47;;
970;SDS011;28939;45.540;-122.632;2022-07-23T05:22:09;1.40;;;1.30;;
970;SDS011;28939;45.540;-122.632;2022-07-23T05:24:41;1.40;;;1.30;;
970;SDS011;28939;45.540;-122.632;2022-07-23T05:27:12;1.43;;;1.30;;
970;SDS011;28939;45.540;-122.632;2022-07-23T05:29:43;1.17;;;1.10;;
970;SDS011;28939;45.540;-122.632;2022-07-23T05:32:14;1.67;;;1.17;;
970;SDS011;28939;45.540;-122.632;2022-07-23T05:34:45;1.00;;;0.90;;
970;SDS011;28939;45.540;-122.632;2022-07-23T05:37:17;1.43;;;1.33;;
970;SDS011;28939;45.540;-122.632;2022-07-23T05:39:49;1.30;;;1.20;;
970;SDS011;28939;45.540;-122.632;2022-07-23T05:42:20;2.00;;;1.70;;
970;SDS011;28939;45.540;-122.632;2022-07-23T05:44:51;2.50;;;1.90;;
970;SDS011;28939;45.540;-122.632;2022-07-23T05:47:22;1.97;;;1.10;;
970;SDS011;28939;45.540;-122.632;2022-07-23T05:49:53;1.47;;;1.37;;
970;SDS011;28939;45.540;-122.632;2022-07-23T05:52:29;1.60;;;1.37;;
970;SDS011;28939;45.540;-122.632;2022-07-23T05:55:02;1.43;;;1.30;;
970;SDS011;28939;45.540;-122.632;2022-07-23T05:57:34;2.50;;;1.00;;
970;SDS011;28939;45.540;-122.632;2022-07-23T06:00:05;1.30;;;1.20;;
970;SDS011;28939;45.540;-122.632;2022-07-23T06:02:38;1.23;;;1.13;;
970;SDS011;28939;45.540;-122.632;2022-07-23T06:05:09;1.17;;;0.90;;
970;SDS011;28939;45.540;-122.632;2022-07-23T06:07:40;1.27;;;1.17;;
970;SDS011;28939;45.540;-122.632;2022-07-23T06:10:12;1.30;;;1.20;;
970;SDS011;28939;45.540;-122.632;2022-07-23T06:12:43;1.20;;;1.10;;
970;SDS011;28939;45.540;-122.632;2022-07-23T06:15:14;1.20;;;1.10;;
970;SDS011;28939;45.540;-122.632;2022-07-23T06:17:44;2.70;;;1.30;;
970;SDS011;28939;45.540;-122.632;2022-07-23T06:20:15;1.53;;;1.43;;
970;SDS011;28939;45.540;-122.632;2022-07-23T06:22:46;1.20;;;1.10;;
970;SDS011;28939;45.540;-122.632;2022-07-23T06:25:19;2.60;;;1.10;;
970;SDS011;28939;45.540;-122.632;2022-07-23T06:27:49;1.27;;;1.17;;
970;SDS011;28939;45.540;-122.632;2022-07-23T06:30:20;1.70;;;1.30;;
970;SDS011;28939;45.540;-122.632;2022-07-23T06:32:51;1.07;;;0.97;;
970;SDS011;28939;45.540;-122.632;2022-07-23T06:35:22;1.40;;;1.30;;
970;SDS011;28939;45.540;-122.632;2022-07-23T06:37:53;1.87;;;1.40;;
970;SDS011;28939;45.540;-122.632;2022-07-23T06:40:26;1.43;;;1.30;;
970;SDS011;28939;45.540;-122.632;2022-07-23T06:42:56;2.50;;;1.13;;
970;SDS011;28939;45.540;-122.632;2022-07-23T06:45:27;1.40;;;1.30;;
970;SDS011;28939;45.540;-122.632;2022-07-23T06:47:59;1.50;;;1.30;;
970;SDS011;28939;45.540;-122.632;2022-07-23T06:50:29;1.37;;;1.27;;
970;SDS011;28939;45.540;-122.632;2022-07-23T06:53:00;1.93;;;1.43;;
970;SDS011;28939;45.540;-122.632;2022-07-23T06:55:33;1.47;;;1.13;;
970;SDS011;28939;45.540;-122.632;2022-07-23T06:58:06;1.30;;;1.20;;
970;SDS011;28939;45.540;-122.632;2022-07-23T07:00:37;1.10;;;1.00;;
970;SDS011;28939;45.540;-122.632;2022-07-23T07:03:08;3.27;;;1.33;;
970;SDS011;28939;45.540;-122.632;2022-07-23T07:05:39;1.60;;;1.33;;
970;SDS011;28939;45.540;-122.632;2022-07-23T07:08:09;1.60;;;1.40;;
970;SDS011;28939;45.540;-122.632;2022-07-23T07:10:42;1.30;;;1.20;;
970;SDS011;28939;45.540;-122.632;2022-07-23T07:13:13;1.50;;;1.23;;
970;SDS011;28939;45.540;-122.632;2022-07-23T07:15:43;1.80;;;1.17;;
970;SDS011;28939;45.540;-122.632;2022-07-23T07:18:14;1.17;;;1.00;;
970;SDS011;28939;45.540;-122.632;2022-07-23T07:20:45;1.10;;;1.00;;
970;SDS011;28939;45.540;-122.632;2022-07-23T07:23:16;1.17;;;1.07;;
970;SDS011;28939;45.540;-122.632;2022-07-23T07:25:49;1.70;;;1.00;;
970;SDS011;28939;45.540;-122.632;2022-07-23T07:28:20;1.60;;;1.30;;
970;SDS011;28939;45.540;-122.632;2022-07-23T07:30:51;1.30;;;1.20;;
970;SDS011;28939;45.540;-122.632;2022-07-23T07:33:22;0.93;;;0.93;;
970;SDS011;28939;45.540;-122.632;2022-07-23T07:35:52;2.43;;;1.60;;
970;SDS011;28939;45.540;-122.632;2022-07-23T07:38:23;2.33;;;1.33;;
970;SDS011;28939;45.540;-122.632;2022-07-23T07:40:56;1.33;;;1.23;;
970;SDS011;28939;45.540;-122.632;2022-07-23T07:43:26;1.00;;;0.90;;
970;SDS011;28939;45.540;-122.632;2022-07-23T07:45:57;1.60;;;1.13;;
970;SDS011;28939;45.540;-122.632;2022-07-23T07:48:28;0.93;;;0.90;;
970;SDS011;28939;45.540;-122.632;2022-07-23T07:50:59;1.60;;;1.50;;
970;SDS011;28939;45.540;-122.632;2022-07-23T07:53:30;1.20;;;1.10;;
970;SDS011;28939;45.540;-122.632;2022-07-23T07:56:03;1.37;;;1.27;;
970;SDS011;28939;45.540;-122.632;2022-07-23T07:58:34;1.00;;;0.90;;
970;SDS011;28939;45.540;-122.632;2022-07-23T08:01:05;1.30;;;1.20;;
970;SDS011;28939;45.540;-122.632;2022-07-23T08:03:35;1.17;;;1.07;;
970;SDS011;28939;45.540;-122.632;2022-07-23T08:06:06;1.17;;;0.97;;
970;SDS011;28939;45.540;-122.632;2022-07-23T08:08:37;1.77;;;1.60;;
970;SDS011;28939;45.540;-122.632;2022-07-23T08:11:10;2.60;;;2.00;;
970;SDS011;28939;45.540;-122.632;2022-07-23T08:13:40;1.90;;;1.80;;
970;SDS011;28939;45.540;-122.632;2022-07-23T08:16:12;5.60;;;2.80;;
970;SDS011;28939;45.540;-122.632;2022-07-23T08:18:42;6.53;;;3.40;;
970;SDS011;28939;45.540;-122.632;2022-07-23T08:21:14;3.50;;;3.20;;
970;SDS011;28939;45.540;-122.632;2022-07-23T08:23:44;3.97;;;3.43;;
970;SDS011;28939;45.540;-122.632;2022-07-23T08:26:17;3.60;;;3.30;;
970;SDS011;28939;45.540;-122.632;2022-07-23T08:28:48;3.23;;;2.93;;
970;SDS011;28939;45.540;-122.632;2022-07-23T08:31:18;3.10;;;2.60;;
970;SDS011;28939;45.540;-122.632;2022-07-23T08:33:49;3.90;;;2.47;;
970;SDS011;28939;45.540;-122.632;2022-07-23T08:36:21;3.00;;;2.43;;
970;SDS011;28939;45.540;-122.632;2022-07-23T08:38:55;2.17;;;1.87;;
970;SDS011;28939;45.540;-122.632;2022-07-23T08:41:27;1.77;;;1.67;;
970;SDS011;28939;45.540;-122.632;2022-07-23T08:43:58;2.00;;;1.80;;
970;SDS011;28939;45.540;-122.632;2022-07-23T08:46:30;1.33;;;1.23;;
970;SDS011;28939;45.540;-122.632;2022-07-23T08:49:09;1.70;;;1.40;;
970;SDS011;28939;45.540;-122.632;2022-07-23T08:51:42;2.00;;;1.00;;
970;SDS011;28939;45.540;-122.632;2022-07-23T08:54:12;2.60;;;1.40;;
970;SDS011;28939;45.540;-122.632;2022-07-23T08:56:45;1.30;;;1.20;;
970;SDS011;28939;45.540;-122.632;2022-07-23T08:59:16;1.60;;;1.50;;
970;SDS011;28939;45.540;-122.632;2022-07-23T09:01:47;1.37;;;1.27;;
970;SDS011;28939;45.540;-122.632;2022-07-23T09:04:18;1.30;;;1.20;;
970;SDS011;28939;45.540;-122.632;2022-07-23T09:06:53;2.33;;;2.00;;
970;SDS011;28939;45.540;-122.632;2022-07-23T09:09:24;1.27;;;1.17;;
970;SDS011;28939;45.540;-122.632;2022-07-23T09:12:05;1.70;;;1.20;;
970;SDS011;28939;45.540;-122.632;2022-07-23T09:14:38;1.63;;;1.53;;
970;SDS011;28939;45.540;-122.632;2022-07-23T09:17:10;1.20;;;1.17;;
970;SDS011;28939;45.540;-122.632;2022-07-23T09:19:42;1.30;;;1.20;;
970;SDS011;28939;45.540;-122.632;2022-07-23T09:22:17;2.73;;;1.20;;
970;SDS011;28939;45.540;-122.632;2022-07-23T09:25:07;0.97;;;0.97;;
970;SDS011;28939;45.540;-122.632;2022-07-23T09:27:48;1.47;;;1.20;;
970;SDS011;28939;45.540;-122.632;2022-07-23T09:30:22;1.87;;;1.10;;
970;SDS011;28939;45.540;-122.632;2022-07-23T09:33:04;1.33;;;1.10;;
970;SDS011;28939;45.540;-122.632;2022-07-23T09:35:49;1.80;;;1.10;;
970;SDS011;28939;45.540;-122.632;2022-07-23T09:38:24;1.43;;;1.33;;
970;SDS011;28939;45.540;-122.632;2022-07-23T09:41:06;1.43;;;1.33;;
970;SDS011;28939;45.540;-122.632;2022-07-23T09:43:39;1.60;;;1.50;;
970;SDS011;28939;45.540;-122.632;2022-07-23T09:46:17;1.43;;;1.03;;
970;SDS011;28939;45.540;-122.632;2022-07-23T09:48:52;1.40;;;1.20;;
970;SDS011;28939;45.540;-122.632;2022-07-23T09:51:24;1.10;;;1.00;;
970;SDS011;28939;45.540;-122.632;2022-07-23T09:53:59;1.40;;;1.10;;
970;SDS011;28939;45.540;-122.632;2022-07-23T09:56:30;1.43;;;1.33;;
970;SDS011;28939;45.540;-122.632;2022-07-23T09:59:04;2.00;;;1.20;;
970;SDS011;28939;45.540;-122.632;2022-07-23T10:01:36;1.77;;;1.17;;
970;SDS011;28939;45.540;-122.632;2022-07-23T10:04:07;1.70;;;1.30;;
970;SDS011;28939;45.540;-122.632;2022-07-23T10:06:39;1.37;;;1.27;;
970;SDS011;28939;45.540;-122.632;2022-07-23T10:09:13;1.30;;;1.20;;
970;SDS011;28939;45.540;-122.632;2022-07-23T10:11:48;1.17;;;1.03;;
970;SDS011;28939;45.540;-122.632;2022-07-23T10:14:21;1.83;;;1.27;;
970;SDS011;28939;45.540;-122.632;2022-07-23T10:16:51;1.07;;;1.07;;
970;SDS011;28939;45.540;-122.632;2022-07-23T10:19:22;1.10;;;1.00;;
970;SDS011;28939;45.540;-122.632;2022-07-23T10:21:55;1.50;;;1.40;;
970;SDS011;28939;45.540;-122.632;2022-07-23T10:24:38;1.30;;;1.00;;
970;SDS011;28939;45.540;-122.632;2022-07-23T10:27:37;1.20;;;1.10;;
970;SDS011;28939;45.540;-122.632;2022-07-23T10:30:16;1.60;;;1.50;;
970;SDS011;28939;45.540;-122.632;2022-07-23T10:33:00;1.73;;;1.37;;
970;SDS011;28939;45.540;-122.632;2022-07-23T10:35:47;1.20;;;1.10;;
970;SDS011;28939;45.540;-122.632;2022-07-23T10:38:21;1.57;;;1.23;;
970;SDS011;28939;45.540;-122.632;2022-07-23T10:40:57;1.20;;;1.10;;
970;SDS011;28939;45.540;-122.632;2022-07-23T10:43:29;1.20;;;1.10;;
970;SDS011;28939;45.540;-122.632;2022-07-23T10:54:47;1.10;;;1.00;;
970;SDS011;28939;45.540;-122.632;2022-07-23T10:57:20;1.10;;;1.00;;
970;SDS011;28939;45.540;-122.632;2022-07-23T11:02:51;1.50;;;1.33;;
970;SDS011;28939;45.540;-122.632;2022-07-23T11:05:24;2.13;;;1.03;;
970;SDS011;28939;45.540;-122.632;2022-07-23T11:10:50;2.13;;;1.63;;
970;SDS011;28939;45.540;-122.632;2022-07-23T11:13:36;1.47;;;0.90;;
970;SDS011;28939;45.540;-122.632;2022-07-23T11:19:08;1.33;;;0.70;;
970;SDS011;28939;45.540;-122.632;2022-07-23T11:24:27;1.00;;;0.80;;
970;SDS011;28939;45.540;-122.632;2022-07-23T11:26:59;1.30;;;1.20;;
970;SDS011;28939;45.540;-122.632;2022-07-23T11:29:43;0.80;;;0.80;;
970;SDS011;28939;45.540;-122.632;2022-07-23T11:32:24;1.30;;;1.00;;
970;SDS011;28939;45.540;-122.632;2022-07-23T11:35:02;0.90;;;0.87;;
970;SDS011;28939;45.540;-122.632;2022-07-23T11:37:47;1.17;;;1.07;;
970;SDS011;28939;45.540;-122.632;2022-07-23T11:40:21;1.17;;;1.07;;
970;SDS011;28939;45.540;-122.632;2022-07-23T11:42:53;1.50;;;1.30;;
970;SDS011;28939;45.540;-122.632;2022-07-23T11:45:29;0.80;;;0.80;;
970;SDS011;28939;45.540;-122.632;2022-07-23T11:48:01;1.27;;;1.17;;
970;SDS011;28939;45.540;-122.632;2022-07-23T11:50:35;1.33;;;1.23;;
970;SDS011;28939;45.540;-122.632;2022-07-23T11:53:06;1.10;;;1.00;;
970;SDS011;28939;45.540;-122.632;2022-07-23T11:55:37;1.23;;;1.13;;
970;SDS011;28939;45.540;-122.632;2022-07-23T11:58:08;1.07;;;1.00;;
970;SDS011;28939;45.540;-122.632;2022-07-23T12:00:40;0.97;;;0.87;;
970;SDS011;28939;45.540;-122.632;2022-07-23T12:03:11;0.87;;;0.80;;
970;SDS011;28939;45.540;-122.632;2022-07-23T12:05:44;0.97;;;0.97;;
970;SDS011;28939;45.540;-122.632;2022-07-23T12:08:14;1.57;;;1.00;;
970;SDS011;28939;45.540;-122.632;2022-07-23T12:10:45;1.50;;;1.30;;
970;SDS011;28939;45.540;-122.632;2022-07-23T12:13:19;1.90;;;0.97;;
970;SDS011;28939;45.540;-122.632;2022-07-23T12:15:52;1.57;;;1.47;;
970;SDS011;28939;45.540;-122.632;2022-07-23T12:18:26;2.67;;;1.47;;
970;SDS011;28939;45.540;-122.632;2022-07-23T12:21:02;1.47;;;1.37;;
970;SDS011;28939;45.540;-122.632;2022-07-23T12:23:34;1.50;;;1.23;;
970;SDS011;28939;45.540;-122.632;2022-07-23T12:26:05;1.30;;;1.20;;
970;SDS011;28939;45.540;-122.632;2022-07-23T12:28:39;1.67;;;1.57;;
970;SDS011;28939;45.540;-122.632;2022-07-23T12:31:11;1.37;;;1.27;;
970;SDS011;28939;45.540;-122.632;2022-07-23T12:33:43;1.30;;;1.23;;
970;SDS011;28939;45.540;-122.632;2022-07-23T12:36:17;1.40;;;1.30;;
970;SDS011;28939;45.540;-122.632;2022-07-23T12:38:48;1.30;;;1.07;;
970;SDS011;28939;45.540;-122.632;2022-07-23T12:41:19;1.60;;;1.43;;
970;SDS011;28939;45.540;-122.632;2022-07-23T12:43:50;1.27;;;1.17;;
970;SDS011;28939;45.540;-122.632;2022-07-23T12:46:21;1.23;;;1.13;;
970;SDS011;28939;45.540;-122.632;2022-07-23T12:48:53;1.50;;;1.40;;
970;SDS011;28939;45.540;-122.632;2022-07-23T12:51:26;1.13;;;1.10;;
970;SDS011;28939;45.540;-122.632;2022-07-23T12:54:03;1.33;;;1.20;;
970;SDS011;28939;45.540;-122.632;2022-07-23T12:56:37;1.17;;;1.17;;
970;SDS011;28939;45.540;-122.632;2022-07-23T12:59:30;1.23;;;1.13;;
970;SDS011;28939;45.540;-122.632;2022-07-23T13:02:02;1.37;;;1.37;;
970;SDS011;28939;45.540;-122.632;2022-07-23T13:04:32;1.40;;;1.30;;
970;SDS011;28939;45.540;-122.632;2022-07-23T13:07:05;1.97;;;1.20;;
970;SDS011;28939;45.540;-122.632;2022-07-23T13:09:36;2.03;;;1.30;;
970;SDS011;28939;45.540;-122.632;2022-07-23T13:12:27;1.57;;;1.47;;
970;SDS011;28939;45.540;-122.632;2022-07-23T13:14:58;1.30;;;1.20;;
970;SDS011;28939;45.540;-122.632;2022-07-23T13:17:29;1.80;;;1.70;;
970;SDS011;28939;45.540;-122.632;2022-07-23T13:20:00;1.10;;;1.00;;
970;SDS011;28939;45.540;-122.632;2022-07-23T13:22:35;1.10;;;1.10;;
970;SDS011;28939;45.540;-122.632;2022-07-23T13:25:06;1.53;;;1.43;;
970;SDS011;28939;45.540;-122.632;2022-07-23T13:27:38;1.63;;;1.53;;
970;SDS011;28939;45.540;-122.632;2022-07-23T13:30:10;0.90;;;0.90;;
970;SDS011;28939;45.540;-122.632;2022-07-23T13:32:41;1.07;;;0.97;;
970;SDS011;28939;45.540;-122.632;2022-07-23T13:35:12;1.30;;;1.20;;
970;SDS011;28939;45.540;-122.632;2022-07-23T13:37:45;1.53;;;1.43;;
970;SDS011;28939;45.540;-122.632;2022-07-23T13:40:16;3.73;;;1.10;;
970;SDS011;28939;45.540;-122.632;2022-07-23T13:42:51;1.43;;;1.33;;
970;SDS011;28939;45.540;-122.632;2022-07-23T13:45:22;1.30;;;1.20;;
970;SDS011;28939;45.540;-122.632;2022-07-23T13:48:13;2.53;;;1.50;;
970;SDS011;28939;45.540;-122.632;2022-07-23T13:50:45;2.23;;;1.40;;
970;SDS011;28939;45.540;-122.632;2022-07-23T13:53:19;1.30;;;1.20;;
970;SDS011;28939;45.540;-122.632;2022-07-23T13:55:52;1.67;;;1.30;;
970;SDS011;28939;45.540;-122.632;2022-07-23T13:58:23;1.40;;;1.30;;
970;SDS011;28939;45.540;-122.632;2022-07-23T14:00:56;1.70;;;1.60;;
970;SDS011;28939;45.540;-122.632;2022-07-23T14:03:28;1.70;;;1.60;;
970;SDS011;28939;45.540;-122.632;2022-07-23T14:05:59;1.50;;;1.40;;
970;SDS011;28939;45.540;-122.632;2022-07-23T14:08:32;1.67;;;1.20;;
970;SDS011;28939;45.540;-122.632;2022-07-23T14:11:03;1.27;;;1.17;;
970;SDS011;28939;45.540;-122.632;2022-07-23T14:13:34;1.47;;;1.37;;
970;SDS011;28939;45.540;-122.632;2022-07-23T14:16:05;3.53;;;1.80;;
970;SDS011;28939;45.540;-122.632;2022-07-23T14:18:36;2.00;;;1.90;;
970;SDS011;28939;45.540;-122.632;2022-07-23T14:21:07;2.20;;;2.00;;
970;SDS011;28939;45.540;-122.632;2022-07-23T14:23:40;2.40;;;2.20;;
970;SDS011;28939;45.540;-122.632;2022-07-23T14:26:10;2.23;;;1.87;;
970;SDS011;28939;45.540;-122.632;2022-07-23T14:28:43;2.97;;;2.50;;
970;SDS011;28939;45.540;-122.632;2022-07-23T14:31:15;2.70;;;2.50;;
970;SDS011;28939;45.540;-122.632;2022-07-23T14:33:47;3.00;;;2.07;;
970;SDS011;28939;45.540;-122.632;2022-07-23T14:36:20;2.33;;;1.90;;
970;SDS011;28939;45.540;-122.632;2022-07-23T14:38:52;2.00;;;1.80;;
970;SDS011;28939;45.540;-122.632;2022-07-23T14:41:24;2.80;;;2.17;;
970;SDS011;28939;45.540;-122.632;2022-07-23T14:43:56;2.47;;;2.27;;
970;SDS011;28939;45.540;-122.632;2022-07-23T14:46:27;2.77;;;1.90;;
970;SDS011;28939;45.540;-122.632;2022-07-23T14:48:58;2.00;;;1.70;;
970;SDS011;28939;45.540;-122.632;2022-07-23T14:51:29;2.10;;;1.47;;
970;SDS011;28939;45.540;-122.632;2022-07-23T14:54:02;1.30;;;1.20;;
970;SDS011;28939;45.540;-122.632;2022-07-23T14:56:33;1.50;;;1.40;;
970;SDS011;28939;45.540;-122.632;2022-07-23T14:59:04;1.43;;;1.27;;
970;SDS011;28939;45.540;-122.632;2022-07-23T15:01:35;0.97;;;0.93;;
970;SDS011;28939;45.540;-122.632;2022-07-23T15:04:07;1.27;;;1.17;;
970;SDS011;28939;45.540;-122.632;2022-07-23T15:06:58;1.40;;;1.10;;
970;SDS011;28939;45.540;-122.632;2022-07-23T15:09:30;1.63;;;1.53;;
970;SDS011;28939;45.540;-122.632;2022-07-23T15:12:02;1.83;;;1.47;;
970;SDS011;28939;45.540;-122.632;2022-07-23T15:14:38;1.20;;;1.20;;
970;SDS011;28939;45.540;-122.632;2022-07-23T15:17:09;1.70;;;1.60;;
970;SDS011;28939;45.540;-122.632;2022-07-23T15:19:40;1.20;;;1.10;;
970;SDS011;28939;45.540;-122.632;2022-07-23T15:22:12;1.40;;;1.30;;
970;SDS011;28939;45.540;-122.632;2022-07-23T15:24:44;1.40;;;1.30;;